createdAt,value
2017-04-29T00:00:12.540Z,71.25
2017-04-29T00:01:26.631Z,71.15
2017-04-29T00:02:40.304Z,71.53
2017-04-29T00:03:54.256Z,72.01
2017-04-29T00:05:08.358Z,71.34
2017-04-29T00:06:21.958Z,72.01
2017-04-29T00:07:35.509Z,72.3
2017-04-29T00:08:49.437Z,72.3
2017-04-29T00:10:15.817Z,72.11
2017-04-29T00:11:32.204Z,72.11
2017-04-29T00:12:48.322Z,72.2
2017-04-29T00:14:01.948Z,72.11
2017-04-29T00:15:16.315Z,72.2
2017-04-29T00:16:29.852Z,71.82
2017-04-29T00:17:43.700Z,72.2
2017-04-29T00:18:57.334Z,72.86
2017-04-29T00:20:10.945Z,72.77
2017-04-29T00:21:24.509Z,72.86
2017-04-29T00:22:38.224Z,72.49
2017-04-29T00:23:52.081Z,72.49
2017-04-29T00:25:05.719Z,72.67
2017-04-29T00:26:19.493Z,72.77
2017-04-29T00:27:33.618Z,73.53
2017-04-29T00:28:47.235Z,73.72
2017-04-29T00:30:01.375Z,72.96
2017-04-29T00:31:14.984Z,73.15
2017-04-29T00:32:28.882Z,73.53
2017-04-29T00:33:42.747Z,73.72
2017-04-29T00:34:56.457Z,73.63
2017-04-29T00:36:10.279Z,73.63
2017-04-29T00:37:23.840Z,74.1
2017-04-29T00:38:37.709Z,74.1
2017-04-29T00:39:51.538Z,73.44
2017-04-29T00:41:05.643Z,73.82
2017-04-29T00:42:19.600Z,73.82
2017-04-29T00:43:33.278Z,73.82
2017-04-29T00:44:46.817Z,74.01
2017-04-29T00:46:01.355Z,74.1
2017-04-29T00:47:14.904Z,74.16
2017-04-29T00:48:28.952Z,74.29
2017-04-29T00:49:42.529Z,74.54
2017-04-29T00:50:56.129Z,74.63
2017-04-29T00:52:10.077Z,74.44
2017-04-29T00:53:23.667Z,74.54
2017-04-29T00:54:37.741Z,74.54
2017-04-29T00:55:51.340Z,75.02
2017-04-29T00:57:05.111Z,74.44
2017-04-29T00:58:18.649Z,74.82
2017-04-29T00:59:32.181Z,74.92
2017-04-29T01:00:46.174Z,75.11
2017-04-29T01:01:59.793Z,75.78
2017-04-29T01:03:13.434Z,75.4
2017-04-29T01:04:27.430Z,75.49
2017-04-29T01:05:41.046Z,75.3
2017-04-29T01:06:54.933Z,75.3
2017-04-29T01:08:08.480Z,75.87
2017-04-29T01:09:22.034Z,75.68
2017-04-29T01:10:35.577Z,75.59
2017-04-29T01:11:49.123Z,76.06
2017-04-29T01:13:03.558Z,76.35
2017-04-29T01:14:36.273Z,76.44
2017-04-29T01:15:49.987Z,76.73
2017-04-29T01:17:03.554Z,76.82
2017-04-29T01:18:17.579Z,76.82
2017-04-29T01:19:31.493Z,76.73
2017-04-29T01:20:45.103Z,77.11
2017-04-29T01:21:58.668Z,77.77
2017-04-29T01:23:12.327Z,77.58
2017-04-29T01:24:26.172Z,77.68
2017-04-29T01:25:40.412Z,77.58
2017-04-29T01:26:53.932Z,77.77
2017-04-29T01:28:07.645Z,78.11
2017-04-29T01:29:21.600Z,77.92
2017-04-29T01:30:35.504Z,78.11
2017-04-29T01:31:49.265Z,78.5
2017-04-29T01:33:02.989Z,78.3
2017-04-29T01:34:16.889Z,78.78
2017-04-29T01:35:30.453Z,78.97
2017-04-29T01:36:44.224Z,78.78
2017-04-29T01:37:57.781Z,78.59
2017-04-29T01:39:11.285Z,78.3
2017-04-29T01:40:24.787Z,78.5
2017-04-29T01:41:38.283Z,78.69
2017-04-29T01:42:52.120Z,78.3
2017-04-29T01:44:05.676Z,78.59
2017-04-29T01:45:19.193Z,78.59
2017-04-29T01:46:33.010Z,78.78
2017-04-29T01:47:46.543Z,78.97
2017-04-29T01:49:00.099Z,79.06
2017-04-29T01:50:13.691Z,79.83
2017-04-29T01:51:27.662Z,79.44
2017-04-29T01:52:41.596Z,79.35
2017-04-29T01:53:55.721Z,79.63
2017-04-29T01:55:09.539Z,79.63
2017-04-29T01:56:23.068Z,79.44
2017-04-29T01:57:36.734Z,79.63
2017-04-29T01:58:50.240Z,79.54
2017-04-29T02:00:04.197Z,79.54
2017-04-29T02:01:18.017Z,80.11
2017-04-29T02:02:31.596Z,80.02
2017-04-29T02:03:45.174Z,79.73
2017-04-29T02:04:59.243Z,79.54
2017-04-29T02:06:12.883Z,79.92
2017-04-29T02:07:27.066Z,79.73
2017-04-29T02:08:40.826Z,79.73
2017-04-29T02:09:54.489Z,79.54
2017-04-29T02:11:08.077Z,79.73
2017-04-29T02:12:21.597Z,79.92
2017-04-29T02:13:35.394Z,80.49
2017-04-29T02:14:48.898Z,80.58
2017-04-29T02:16:02.457Z,80.93
2017-04-29T02:17:15.986Z,81.44
2017-04-29T02:18:29.865Z,81.21
2017-04-29T02:19:43.700Z,80.93
2017-04-29T02:20:57.387Z,81.78
2017-04-29T02:22:10.890Z,81.97
2017-04-29T02:23:24.432Z,81.3
2017-04-29T02:24:38.127Z,81.49
2017-04-29T02:25:51.999Z,81.68
2017-04-29T02:27:05.511Z,81.49
2017-04-29T02:28:18.996Z,81.59
2017-04-29T02:29:32.507Z,81.97
2017-04-29T02:30:46.614Z,81.87
2017-04-29T02:32:00.928Z,81.87
2017-04-29T02:33:14.488Z,81.87
2017-04-29T02:34:28.132Z,81.02
2017-04-29T02:35:41.731Z,80.83
2017-04-29T02:36:55.690Z,81.4
2017-04-29T02:38:09.908Z,81.21
2017-04-29T02:39:23.509Z,81.21
2017-04-29T02:40:37.196Z,81.3
2017-04-29T02:41:50.825Z,81.12
2017-04-29T02:43:04.429Z,81.21
2017-04-29T02:44:18.408Z,81.59
2017-04-29T02:45:31.916Z,81.02
2017-04-29T02:46:45.927Z,81.4
2017-04-29T02:47:59.865Z,81.97
2017-04-29T02:49:14.257Z,80.93
2017-04-29T02:50:28.911Z,81.21
2017-04-29T02:51:42.917Z,81.59
2017-04-29T02:52:56.648Z,81.12
2017-04-29T02:54:10.629Z,81.02
2017-04-29T02:55:24.161Z,81.49
2017-04-29T02:56:38.732Z,80.93
2017-04-29T02:57:53.170Z,81.4
2017-04-29T02:59:07.792Z,81.87
2017-04-29T03:00:27.460Z,81.87
2017-04-29T03:01:48.268Z,81.68
2017-04-29T03:03:05.846Z,81.97
2017-04-29T03:04:21.496Z,81.21
2017-04-29T03:05:37.798Z,81.78
2017-04-29T03:06:52.097Z,81.82
2017-04-29T03:08:06.025Z,81.63
2017-04-29T03:09:20.188Z,81.68
2017-04-29T03:10:33.907Z,81.12
2017-04-29T03:11:47.476Z,81.4
2017-04-29T03:13:01.046Z,81.49
2017-04-29T03:14:14.767Z,81.87
2017-04-29T03:15:28.752Z,81.87
2017-04-29T03:16:42.681Z,81.87
2017-04-29T03:17:56.250Z,81.44
2017-04-29T03:19:09.862Z,81.44
2017-04-29T03:20:23.530Z,80.87
2017-04-29T03:21:37.495Z,81.44
2017-04-29T03:22:51.050Z,80.96
2017-04-29T03:24:04.677Z,81.21
2017-04-29T03:25:18.195Z,81.12
2017-04-29T03:26:32.009Z,81.35
2017-04-29T03:27:45.955Z,81.16
2017-04-29T03:28:59.553Z,81.16
2017-04-29T03:30:13.330Z,81.54
2017-04-29T03:31:27.532Z,81.35
2017-04-29T03:32:41.189Z,81.44
2017-04-29T03:33:55.347Z,80.83
2017-04-29T03:35:08.911Z,81.82
2017-04-29T03:36:22.433Z,82.01
2017-04-29T03:37:35.928Z,81.87
2017-04-29T03:38:49.413Z,82.16
2017-04-29T03:40:32.892Z,83.2
2017-04-29T03:41:46.381Z,82.54
2017-04-29T03:43:00.151Z,82.54
2017-04-29T03:44:13.790Z,83.11
2017-04-29T03:45:27.711Z,82.92
2017-04-29T03:46:41.429Z,83.01
2017-04-29T03:47:54.930Z,82.64
2017-04-29T03:49:08.842Z,82.82
2017-04-29T03:50:22.437Z,82.64
2017-04-29T03:51:36.458Z,83.01
2017-04-29T03:52:50.052Z,83.11
2017-04-29T03:54:04.081Z,82.92
2017-04-29T03:55:17.729Z,83.11
2017-04-29T03:56:31.659Z,83.49
2017-04-29T03:57:45.557Z,83.2
2017-04-29T03:59:00.375Z,83.39
2017-04-29T04:00:13.966Z,83.39
2017-04-29T04:01:27.728Z,83.59
2017-04-29T04:02:41.710Z,83.01
2017-04-29T04:03:55.984Z,83.49
2017-04-29T04:05:09.656Z,83.59
2017-04-29T04:06:23.371Z,83.87
2017-04-29T04:07:37.048Z,83.78
2017-04-29T04:08:50.562Z,83.78
2017-04-29T04:10:04.693Z,83.11
2017-04-29T04:11:18.303Z,83.49
2017-04-29T04:12:32.297Z,83.68
2017-04-29T04:13:46.200Z,83.97
2017-04-29T04:15:00.383Z,84.44
2017-04-29T04:16:14.390Z,83.49
2017-04-29T04:17:28.114Z,83.97
2017-04-29T04:19:13.822Z,83.97
2017-04-29T04:20:27.666Z,84.53
2017-04-29T04:21:41.590Z,83.97
2017-04-29T04:22:55.497Z,84.25
2017-04-29T04:24:09.011Z,84.34
2017-04-29T04:25:22.526Z,84.06
2017-04-29T04:26:36.025Z,83.87
2017-04-29T04:27:50.296Z,83.97
2017-04-29T04:29:04.144Z,84.06
2017-04-29T04:30:17.871Z,84.53
2017-04-29T04:31:31.639Z,84.44
2017-04-29T04:32:45.201Z,84.25
2017-04-29T04:33:59.831Z,84.53
2017-04-29T04:35:14.933Z,83.97
2017-04-29T04:36:29.198Z,83.87
2017-04-29T04:37:42.782Z,83.87
2017-04-29T04:38:56.407Z,83.2
2017-04-29T04:40:10.280Z,83.2
2017-04-29T04:41:23.998Z,82.82
2017-04-29T04:42:37.526Z,82.64
2017-04-29T04:43:51.055Z,82.92
2017-04-29T04:45:04.683Z,82.77
2017-04-29T04:46:18.696Z,83.11
2017-04-29T04:47:32.510Z,83.11
2017-04-29T04:48:46.141Z,83.44
2017-04-29T04:49:59.714Z,83.06
2017-04-29T04:51:13.261Z,82.96
2017-04-29T04:52:27.034Z,82.73
2017-04-29T04:53:40.542Z,83.11
2017-04-29T04:54:54.502Z,82.58
2017-04-29T04:56:08.496Z,82.87
2017-04-29T04:57:22.134Z,82.49
2017-04-29T04:58:36.023Z,83.06
2017-04-29T04:59:49.703Z,82.68
2017-04-29T05:01:03.215Z,81.92
2017-04-29T05:02:16.888Z,81.82
2017-04-29T05:03:30.404Z,81.63
2017-04-29T05:04:44.423Z,80.77
2017-04-29T05:05:57.980Z,79.3
2017-04-29T05:07:11.494Z,78.91
2017-04-29T05:08:25.184Z,78.44
2017-04-29T05:09:38.697Z,79.2
2017-04-29T05:10:52.530Z,79.49
2017-04-29T05:12:06.039Z,79.01
2017-04-29T05:13:19.569Z,79.2
2017-04-29T05:14:33.407Z,78.91
2017-04-29T05:15:46.908Z,79.3
2017-04-29T05:17:00.766Z,79.01
2017-04-29T05:18:14.271Z,79.01
2017-04-29T05:19:27.766Z,78.63
2017-04-29T05:20:41.606Z,78.34
2017-04-29T05:21:55.275Z,78.06
2017-04-29T05:23:09.070Z,78.19
2017-04-29T05:24:22.889Z,77.43
2017-04-29T05:25:36.419Z,77.11
2017-04-29T05:26:49.980Z,77.05
2017-04-29T05:28:03.767Z,77.15
2017-04-29T05:29:17.590Z,76.96
2017-04-29T05:30:31.797Z,76.57
2017-04-29T05:31:45.666Z,76.01
2017-04-29T05:32:59.191Z,75.95
2017-04-29T05:34:12.835Z,75.76
2017-04-29T05:35:26.642Z,75.28
2017-04-29T05:36:40.600Z,73.85
2017-04-29T05:37:54.823Z,73.51
2017-04-29T05:39:08.651Z,72.56
2017-04-29T05:40:22.143Z,70.97
2017-04-29T05:41:36.153Z,69.83
2017-04-29T05:42:49.692Z,69.83
2017-04-29T05:44:03.218Z,69.93
2017-04-29T05:45:16.726Z,69.17
2017-04-29T05:46:30.594Z,68.24
2017-04-29T05:47:44.519Z,68.21
2017-04-29T05:48:58.195Z,67.86
2017-04-29T05:50:11.853Z,68.24
2017-04-29T05:51:25.660Z,68.05
2017-04-29T05:52:39.176Z,67.86
2017-04-29T05:53:53.117Z,67.86
2017-04-29T05:55:06.970Z,68.3
2017-04-29T05:56:20.465Z,67.45
2017-04-29T05:57:33.953Z,68.53
2017-04-29T05:59:02.339Z,67
2017-04-29T06:00:16.146Z,66.72
2017-04-29T06:01:29.772Z,66.24
2017-04-29T06:02:43.294Z,66.34
2017-04-29T06:03:56.821Z,66.24
2017-04-29T06:05:10.456Z,65.58
2017-04-29T06:06:24.234Z,65.89
2017-04-29T06:07:37.796Z,65.96
2017-04-29T06:08:51.972Z,66.91
2017-04-29T06:10:05.525Z,66.63
2017-04-29T06:11:19.011Z,66.24
2017-04-29T06:12:32.932Z,66.72
2017-04-29T06:13:46.454Z,66.44
2017-04-29T06:15:00.372Z,66.5
2017-04-29T06:16:13.879Z,66.91
2017-04-29T06:17:27.385Z,66.72
2017-04-29T06:18:41.308Z,66.15
2017-04-29T06:19:55.032Z,65.58
2017-04-29T06:21:08.640Z,65.86
2017-04-29T06:22:22.144Z,65.29
2017-04-29T06:23:35.736Z,65.29
2017-04-29T06:24:49.740Z,65.77
2017-04-29T06:26:03.659Z,65.86
2017-04-29T06:27:17.165Z,64.85
2017-04-29T06:28:30.832Z,64.65
2017-04-29T06:29:44.376Z,65.13
2017-04-29T06:30:58.260Z,64.81
2017-04-29T06:32:12.507Z,65.33
2017-04-29T06:33:26.168Z,65.48
2017-04-29T06:34:40.267Z,65.1
2017-04-29T06:35:53.875Z,64.62
2017-04-29T06:37:07.830Z,65
2017-04-29T06:38:21.715Z,65.39
2017-04-29T06:39:35.586Z,65.29
2017-04-29T06:40:49.838Z,64.94
2017-04-29T06:42:03.570Z,65.61
2017-04-29T06:43:17.468Z,64.47
2017-04-29T06:44:31.147Z,64.18
2017-04-29T06:45:44.879Z,63.6
2017-04-29T06:46:58.514Z,63.6
2017-04-29T06:48:12.491Z,64.09
2017-04-29T06:49:26.370Z,63.13
2017-04-29T06:50:40.027Z,63.04
2017-04-29T06:51:53.725Z,62.94
2017-04-29T06:53:07.560Z,63.13
2017-04-29T06:54:21.855Z,63.99
2017-04-29T06:55:36.066Z,62.37
2017-04-29T06:56:49.928Z,62.56
2017-04-29T06:58:03.563Z,62.02
2017-04-29T06:59:55.524Z,61.99
2017-04-29T07:01:09.380Z,62.21
2017-04-29T07:02:23.150Z,61.54
2017-04-29T07:03:36.671Z,61.92
2017-04-29T07:04:50.521Z,60.97
2017-04-29T07:06:04.454Z,60.24
2017-04-29T07:07:18.409Z,60.04
2017-04-29T07:08:32.102Z,59.66
2017-04-29T07:09:46.017Z,58.9
2017-04-29T07:10:59.842Z,58.7
2017-04-29T07:12:13.421Z,58.23
2017-04-29T07:13:27.324Z,58.8
2017-04-29T07:14:40.942Z,58.23
2017-04-29T07:15:55.126Z,58.04
2017-04-29T07:17:28.549Z,58.61
2017-04-29T07:18:42.437Z,58.51
2017-04-29T07:19:56.209Z,58.9
2017-04-29T07:21:09.882Z,58.51
2017-04-29T07:22:23.890Z,58.8
2017-04-29T07:23:37.597Z,58.04
2017-04-29T07:24:52.029Z,58.14
2017-04-29T07:26:05.662Z,57.65
2017-04-29T07:27:19.635Z,58.04
2017-04-29T07:28:33.576Z,58.23
2017-04-29T07:29:47.114Z,57.75
2017-04-29T07:31:00.934Z,57.28
2017-04-29T07:32:14.465Z,56.8
2017-04-29T07:33:28.014Z,56.54
2017-04-29T07:34:41.540Z,55.11
2017-04-29T07:35:55.093Z,54.94
2017-04-29T07:37:09.631Z,54.08
2017-04-29T07:38:23.246Z,53.61
2017-04-29T07:39:36.869Z,52.77
2017-04-29T07:40:50.461Z,53.16
2017-04-29T07:42:04.017Z,53.44
2017-04-29T07:43:17.835Z,53.61
2017-04-29T07:44:31.533Z,53.03
2017-04-29T07:45:45.517Z,52.26
2017-04-29T07:46:59.060Z,52.46
2017-04-29T07:48:12.983Z,51.89
2017-04-29T07:49:27.221Z,52.84
2017-04-29T07:50:41.149Z,52.08
2017-04-29T07:51:55.088Z,52.34
2017-04-29T07:53:09.073Z,52.15
2017-04-29T07:54:23.628Z,52.53
2017-04-29T07:55:38.094Z,52.05
2017-04-29T07:56:51.649Z,51.95
2017-04-29T07:58:05.220Z,52.15
2017-04-29T07:59:19.151Z,52.05
2017-04-29T08:00:32.798Z,52.15
2017-04-29T08:01:47.284Z,51.35
2017-04-29T08:03:00.831Z,51.64
2017-04-29T08:04:15.007Z,51.29
2017-04-29T08:05:28.635Z,51.09
2017-04-29T08:06:42.226Z,51.45
2017-04-29T08:07:56.084Z,51.45
2017-04-29T08:09:09.978Z,50.69
2017-04-29T08:10:23.717Z,49.47
2017-04-29T08:11:37.465Z,48.8
2017-04-29T08:12:51.709Z,48.64
2017-04-29T08:14:06.748Z,48.93
2017-04-29T08:15:20.386Z,49.49
2017-04-29T08:19:49.551Z,49.76
2017-04-29T08:21:03.791Z,49.18
2017-04-29T08:22:17.377Z,47.37
2017-04-29T08:23:31.008Z,47.27
2017-04-29T08:24:45.495Z,47.37
2017-04-29T08:26:00.006Z,47.75
2017-04-29T08:27:15.715Z,47.37
2017-04-29T08:28:30.186Z,47.49
2017-04-29T08:29:44.771Z,46.82
2017-04-29T08:30:59.242Z,46.53
2017-04-29T08:32:12.839Z,45.67
2017-04-29T08:33:27.166Z,45.77
2017-04-29T08:34:40.733Z,46.06
2017-04-29T08:35:55.313Z,45.77
2017-04-29T08:37:09.413Z,45.01
2017-04-29T08:38:23.397Z,44.91
2017-04-29T08:39:37.295Z,44.43
2017-04-29T08:40:52.379Z,43.57
2017-04-29T08:42:06.157Z,43.38
2017-04-29T08:43:20.340Z,42.71
2017-04-29T08:44:35.668Z,43.19
2017-04-29T08:45:50.188Z,42.9
2017-04-29T08:47:03.889Z,43.19
2017-04-29T08:48:18.026Z,43.38
2017-04-29T08:49:34.148Z,42.9
2017-04-29T08:50:49.112Z,41.87
2017-04-29T08:52:04.741Z,41.11
2017-04-29T08:53:19.785Z,40.82
2017-04-29T08:54:34.241Z,41.01
2017-04-29T08:55:48.942Z,40.82
2017-04-29T08:57:03.435Z,41.11
2017-04-29T08:58:18.227Z,41.03
2017-04-29T08:59:32.986Z,41.68
2017-04-29T09:00:47.285Z,42.07
2017-04-29T09:02:02.072Z,42.71
2017-04-29T09:03:15.928Z,42.33
2017-04-29T09:04:30.619Z,41.83
2017-04-29T09:05:44.763Z,41.28
2017-04-29T09:07:03.886Z,40.61
2017-04-29T09:08:18.871Z,40.32
2017-04-29T09:09:34.936Z,39.47
2017-04-29T09:10:49.677Z,39.08
2017-04-29T09:12:03.414Z,39
2017-04-29T09:13:17.788Z,38.81
2017-04-29T09:14:31.769Z,38.43
2017-04-29T09:15:45.349Z,38.24
2017-04-29T09:16:59.025Z,39
2017-04-29T09:18:12.692Z,39
2017-04-29T09:19:27.949Z,39.29
2017-04-29T09:20:42.414Z,40.06
2017-04-29T09:21:56.315Z,40.52
2017-04-29T09:23:10.258Z,40.61
2017-04-29T09:24:24.287Z,41.09
2017-04-29T09:25:38.300Z,41.38
2017-04-29T09:27:05.919Z,40.7
2017-04-29T09:28:21.189Z,40.99
2017-04-29T09:29:41.211Z,40.7
2017-04-29T09:30:57.042Z,41.38
2017-04-29T09:32:14.616Z,41.35
2017-04-29T09:33:28.488Z,41.66
2017-04-29T09:34:42.371Z,41.85
2017-04-29T09:35:56.966Z,41.55
2017-04-29T09:37:10.923Z,40.7
2017-04-29T09:38:25.657Z,40.8
2017-04-29T09:39:39.530Z,40.61
2017-04-29T09:40:53.709Z,40.61
2017-04-29T09:42:07.339Z,40.42
2017-04-29T09:43:21.238Z,39.94
2017-04-29T09:44:37.066Z,40.42
2017-04-29T09:45:53.591Z,40.52
2017-04-29T09:47:12.917Z,40.32
2017-04-29T09:48:30.948Z,40.32
2017-04-29T09:49:51.183Z,40.03
2017-04-29T09:51:09.059Z,39.94
2017-04-29T09:52:27.977Z,40.52
2017-04-29T09:53:43.840Z,40.42
2017-04-29T09:55:01.406Z,40.42
2017-04-29T09:56:20.815Z,40.42
2017-04-29T09:57:38.005Z,40.99
2017-04-29T09:58:57.234Z,41.18
2017-04-29T10:00:14.072Z,41.06
2017-04-29T10:01:30.500Z,40.99
2017-04-29T10:02:47.708Z,40.88
2017-04-29T10:04:04.288Z,41.06
2017-04-29T10:05:19.787Z,41.35
2017-04-29T10:06:34.869Z,41.55
2017-04-29T10:07:49.181Z,40.99
2017-04-29T10:09:04.079Z,40.61
2017-04-29T10:10:19.624Z,39.47
2017-04-29T10:11:33.585Z,38.98
2017-04-29T10:12:48.615Z,38.79
2017-04-29T10:14:04.080Z,38.32
2017-04-29T10:15:19.128Z,37.55
2017-04-29T10:16:34.245Z,37.84
2017-04-29T10:17:48.881Z,38.12
2017-04-29T10:19:03.666Z,37.65
2017-04-29T10:20:17.336Z,38.14
2017-04-29T10:21:31.466Z,37.85
2017-04-29T10:22:45.034Z,37.76
2017-04-29T10:23:58.787Z,38.05
2017-04-29T10:25:28.632Z,37.11
2017-04-29T10:26:43.120Z,36.63
2017-04-29T10:27:57.443Z,36.35
2017-04-29T10:29:13.721Z,35.29
2017-04-29T10:30:27.590Z,35.2
2017-04-29T10:31:41.387Z,35.49
2017-04-29T10:32:56.018Z,35.58
2017-04-29T10:34:10.135Z,34.72
2017-04-29T10:35:23.634Z,34.83
2017-04-29T10:36:37.417Z,34.36
2017-04-29T10:37:51.320Z,34.74
2017-04-29T10:39:05.209Z,34.83
2017-04-29T10:40:20.122Z,34.53
2017-04-29T10:41:34.531Z,35.29
2017-04-29T10:42:49.303Z,36.35
2017-04-29T10:44:04.191Z,36.92
2017-04-29T10:45:17.784Z,36.9
2017-04-29T10:46:31.465Z,36.8
2017-04-29T10:47:45.423Z,36.92
2017-04-29T10:48:59.687Z,37.02
2017-04-29T10:50:13.508Z,37.48
2017-04-29T10:51:27.429Z,37.84
2017-04-29T10:52:41.155Z,38.12
2017-04-29T10:53:54.635Z,37.65
2017-04-29T10:55:08.407Z,37.66
2017-04-29T10:56:22.387Z,37.95
2017-04-29T10:57:36.030Z,37.76
2017-04-29T10:58:49.457Z,37.09
2017-04-29T11:00:03.026Z,36.99
2017-04-29T11:01:19.056Z,37.19
2017-04-29T11:02:35.528Z,37.57
2017-04-29T11:03:49.453Z,38.14
2017-04-29T11:05:03.689Z,38.05
2017-04-29T11:06:17.551Z,37.76
2017-04-29T11:07:32.119Z,37.95
2017-04-29T11:08:46.388Z,37.95
2017-04-29T11:10:01.458Z,36.63
2017-04-29T11:11:16.500Z,36.35
2017-04-29T11:12:30.341Z,36.25
2017-04-29T11:13:44.275Z,35.77
2017-04-29T11:14:58.493Z,35.77
2017-04-29T11:16:12.142Z,35.96
2017-04-29T11:17:25.678Z,36.44
2017-04-29T11:18:39.163Z,36.25
2017-04-29T11:19:53.568Z,35.2
2017-04-29T11:21:07.871Z,35.29
2017-04-29T11:22:22.201Z,35.58
2017-04-29T11:23:36.184Z,35.94
2017-04-29T11:24:51.123Z,35.58
2017-04-29T11:26:04.885Z,35.2
2017-04-29T11:27:19.528Z,34.91
2017-04-29T11:28:34.576Z,34.53
2017-04-29T11:29:49.299Z,34.43
2017-04-29T11:31:02.886Z,34.83
2017-04-29T11:32:17.166Z,34.83
2017-04-29T11:33:31.012Z,34.81
2017-04-29T11:34:47.020Z,34.81
2017-04-29T11:36:01.168Z,34.34
2017-04-29T11:37:17.146Z,34.05
2017-04-29T11:38:30.812Z,33.3
2017-04-29T11:39:44.649Z,33.2
2017-04-29T11:40:58.122Z,33.67
2017-04-29T11:42:11.617Z,33.28
2017-04-29T11:43:25.569Z,32.14
2017-04-29T11:44:39.416Z,31.56
2017-04-29T11:45:53.433Z,32.14
2017-04-29T11:47:07.303Z,32.31
2017-04-29T11:48:20.816Z,32.41
2017-04-29T11:49:34.380Z,32.41
2017-04-29T11:50:48.365Z,33.07
2017-04-29T11:52:03.138Z,33.17
2017-04-29T11:53:18.098Z,33.56
2017-04-29T11:54:31.628Z,33.84
2017-04-29T11:55:45.315Z,33.27
2017-04-29T11:56:58.964Z,33.07
2017-04-29T11:58:12.727Z,33.19
2017-04-29T11:59:26.362Z,32.42
2017-04-29T12:00:39.881Z,32.42
2017-04-29T12:01:53.847Z,32.52
2017-04-29T12:03:07.503Z,32.42
2017-04-29T12:04:21.994Z,32.14
2017-04-29T12:05:35.834Z,32.62
2017-04-29T12:06:49.255Z,32.42
2017-04-29T12:08:03.105Z,31.95
2017-04-29T12:09:17.963Z,31.38
2017-04-29T12:10:32.179Z,31.85
2017-04-29T12:11:45.853Z,31.47
2017-04-29T12:12:59.729Z,31.95
2017-04-29T12:14:13.531Z,32.52
2017-04-29T12:15:27.892Z,32.5
2017-04-29T12:16:41.865Z,31.47
2017-04-29T12:17:55.831Z,31.18
2017-04-29T12:19:09.862Z,31.2
2017-04-29T12:20:24.284Z,30.9
2017-04-29T12:21:37.850Z,30.8
2017-04-29T12:22:53.214Z,31.27
2017-04-29T12:24:07.738Z,31.37
2017-04-29T12:25:21.385Z,31.18
2017-04-29T12:26:35.695Z,31.47
2017-04-29T12:27:50.207Z,31.47
2017-04-29T12:29:05.061Z,31.29
2017-04-29T12:30:18.708Z,31.37
2017-04-29T12:31:32.673Z,31.56
2017-04-29T12:32:47.682Z,30.99
2017-04-29T12:34:01.937Z,31.09
2017-04-29T12:35:16.238Z,30.61
2017-04-29T12:36:29.726Z,30.51
2017-04-29T12:37:43.427Z,30.41
2017-04-29T12:38:58.096Z,30.9
2017-04-29T12:40:12.296Z,31.37
2017-04-29T12:41:27.568Z,31.47
2017-04-29T12:42:42.919Z,31.47
2017-04-29T12:43:58.362Z,31.47
2017-04-29T12:45:11.866Z,31.27
2017-04-29T12:46:26.517Z,31.27
2017-04-29T12:47:41.117Z,31.47
2017-04-29T12:48:54.747Z,32.14
2017-04-29T12:50:09.301Z,32.33
